sensor_id;sensor_type;location;lat;lon;timestamp;P1;durP1;ratioP1;P2;durP2;ratioP2
17052;SDS011;8643;48.824;11.422;2023-07-29T00:01:28;9.48;;;5.32;;
17052;SDS011;8643;48.824;11.422;2023-07-29T00:03:56;7.45;;;5.05;;
17052;SDS011;8643;48.824;11.422;2023-07-29T00:06:26;7.30;;;5.20;;
17052;SDS011;8643;48.824;11.422;2023-07-29T00:08:54;9.85;;;5.10;;
17052;SDS011;8643;48.824;11.422;2023-07-29T00:11:24;7.15;;;5.07;;
17052;SDS011;8643;48.824;11.422;2023-07-29T00:13:52;8.77;;;4.65;;
17052;SDS011;8643;48.824;11.422;2023-07-29T00:16:21;6.38;;;4.93;;
17052;SDS011;8643;48.824;11.422;2023-07-29T00:18:51;9.70;;;5.38;;
17052;SDS011;8643;48.824;11.422;2023-07-29T00:21:20;9.95;;;5.20;;
17052;SDS011;8643;48.824;11.422;2023-07-29T00:23:48;9.45;;;5.15;;
17052;SDS011;8643;48.824;11.422;2023-07-29T00:26:16;7.45;;;4.75;;
17052;SDS011;8643;48.824;11.422;2023-07-29T00:28:45;6.80;;;4.60;;
17052;SDS011;8643;48.824;11.422;2023-07-29T00:31:14;7.25;;;4.30;;
17052;SDS011;8643;48.824;11.422;2023-07-29T00:33:42;6.90;;;4.38;;
17052;SDS011;8643;48.824;11.422;2023-07-29T00:36:12;6.22;;;4.25;;
17052;SDS011;8643;48.824;11.422;2023-07-29T00:38:41;7.82;;;4.80;;
17052;SDS011;8643;48.824;11.422;2023-07-29T00:41:10;9.40;;;4.80;;
17052;SDS011;8643;48.824;11.422;2023-07-29T00:43:41;5.95;;;4.65;;
17052;SDS011;8643;48.824;11.422;2023-07-29T00:46:10;6.03;;;4.65;;
17052;SDS011;8643;48.824;11.422;2023-07-29T00:48:41;8.80;;;5.32;;
17052;SDS011;8643;48.824;11.422;2023-07-29T00:51:11;7.15;;;4.90;;
17052;SDS011;8643;48.824;11.422;2023-07-29T00:53:41;8.18;;;5.32;;
17052;SDS011;8643;48.824;11.422;2023-07-29T00:56:09;9.43;;;5.20;;
17052;SDS011;8643;48.824;11.422;2023-07-29T00:58:38;9.55;;;5.35;;
17052;SDS011;8643;48.824;11.422;2023-07-29T01:01:07;7.53;;;5.25;;
17052;SDS011;8643;48.824;11.422;2023-07-29T01:03:36;6.97;;;5.45;;
17052;SDS011;8643;48.824;11.422;2023-07-29T01:06:17;8.13;;;4.95;;
17052;SDS011;8643;48.824;11.422;2023-07-29T01:08:55;6.80;;;4.85;;
17052;SDS011;8643;48.824;11.422;2023-07-29T01:11:33;7.40;;;4.82;;
17052;SDS011;8643;48.824;11.422;2023-07-29T01:14:16;7.13;;;4.82;;
17052;SDS011;8643;48.824;11.422;2023-07-29T01:16:58;8.70;;;4.90;;
17052;SDS011;8643;48.824;11.422;2023-07-29T01:19:37;9.80;;;4.90;;
17052;SDS011;8643;48.824;11.422;2023-07-29T01:22:25;8.80;;;5.07;;
17052;SDS011;8643;48.824;11.422;2023-07-29T01:24:55;7.70;;;5.07;;
17052;SDS011;8643;48.824;11.422;2023-07-29T01:27:24;8.95;;;5.80;;
17052;SDS011;8643;48.824;11.422;2023-07-29T01:29:52;14.27;;;6.40;;
17052;SDS011;8643;48.824;11.422;2023-07-29T01:32:25;7.07;;;5.18;;
17052;SDS011;8643;48.824;11.422;2023-07-29T01:35:07;6.80;;;5.13;;
17052;SDS011;8643;48.824;11.422;2023-07-29T01:37:44;7.43;;;5.05;;
17052;SDS011;8643;48.824;11.422;2023-07-29T01:40:18;8.20;;;4.68;;
17052;SDS011;8643;48.824;11.422;2023-07-29T01:42:49;8.82;;;4.60;;
17052;SDS011;8643;48.824;11.422;2023-07-29T01:45:18;6.72;;;4.60;;
17052;SDS011;8643;48.824;11.422;2023-07-29T01:47:50;9.13;;;4.63;;
17052;SDS011;8643;48.824;11.422;2023-07-29T01:50:20;5.93;;;4.40;;
17052;SDS011;8643;48.824;11.422;2023-07-29T01:52:50;5.65;;;4.05;;
17052;SDS011;8643;48.824;11.422;2023-07-29T01:55:19;9.10;;;5.60;;
17052;SDS011;8643;48.824;11.422;2023-07-29T01:57:48;6.25;;;4.20;;
17052;SDS011;8643;48.824;11.422;2023-07-29T02:00:18;8.93;;;5.38;;
17052;SDS011;8643;48.824;11.422;2023-07-29T02:02:48;7.65;;;4.60;;
17052;SDS011;8643;48.824;11.422;2023-07-29T02:05:17;7.05;;;4.30;;
17052;SDS011;8643;48.824;11.422;2023-07-29T02:07:45;6.07;;;4.22;;
17052;SDS011;8643;48.824;11.422;2023-07-29T02:10:14;5.78;;;4.05;;
17052;SDS011;8643;48.824;11.422;2023-07-29T02:12:44;8.15;;;4.82;;
17052;SDS011;8643;48.824;11.422;2023-07-29T02:15:12;5.57;;;4.80;;
17052;SDS011;8643;48.824;11.422;2023-07-29T02:17:41;7.35;;;5.03;;
17052;SDS011;8643;48.824;11.422;2023-07-29T02:20:11;10.57;;;6.68;;
17052;SDS011;8643;48.824;11.422;2023-07-29T02:22:40;8.52;;;6.53;;
17052;SDS011;8643;48.824;11.422;2023-07-29T02:25:08;9.13;;;6.38;;
17052;SDS011;8643;48.824;11.422;2023-07-29T02:27:37;10.90;;;7.07;;
17052;SDS011;8643;48.824;11.422;2023-07-29T02:30:08;10.80;;;8.05;;
17052;SDS011;8643;48.824;11.422;2023-07-29T02:32:38;15.52;;;9.88;;
17052;SDS011;8643;48.824;11.422;2023-07-29T02:35:07;15.95;;;11.10;;
17052;SDS011;8643;48.824;11.422;2023-07-29T02:37:36;18.95;;;11.68;;
17052;SDS011;8643;48.824;11.422;2023-07-29T02:40:05;15.95;;;10.82;;
17052;SDS011;8643;48.824;11.422;2023-07-29T02:42:35;16.05;;;11.13;;
17052;SDS011;8643;48.824;11.422;2023-07-29T02:45:05;14.73;;;11.25;;
17052;SDS011;8643;48.824;11.422;2023-07-29T02:47:37;15.18;;;10.90;;
17052;SDS011;8643;48.824;11.422;2023-07-29T02:50:06;22.33;;;11.27;;
17052;SDS011;8643;48.824;11.422;2023-07-29T02:52:36;13.38;;;10.13;;
17052;SDS011;8643;48.824;11.422;2023-07-29T02:55:04;15.20;;;10.68;;
17052;SDS011;8643;48.824;11.422;2023-07-29T02:57:34;12.55;;;9.35;;
17052;SDS011;8643;48.824;11.422;2023-07-29T03:00:03;18.95;;;10.23;;
17052;SDS011;8643;48.824;11.422;2023-07-29T03:02:35;15.35;;;11.30;;
17052;SDS011;8643;48.824;11.422;2023-07-29T03:05:04;21.13;;;11.88;;
17052;SDS011;8643;48.824;11.422;2023-07-29T03:07:33;15.52;;;11.30;;
17052;SDS011;8643;48.824;11.422;2023-07-29T03:10:03;14.98;;;10.93;;
17052;SDS011;8643;48.824;11.422;2023-07-29T03:12:33;15.40;;;10.63;;
17052;SDS011;8643;48.824;11.422;2023-07-29T03:15:02;18.10;;;11.60;;
17052;SDS011;8643;48.824;11.422;2023-07-29T03:17:32;17.75;;;11.10;;
17052;SDS011;8643;48.824;11.422;2023-07-29T03:20:02;18.55;;;11.68;;
17052;SDS011;8643;48.824;11.422;2023-07-29T03:22:31;19.50;;;11.25;;
17052;SDS011;8643;48.824;11.422;2023-07-29T03:24:59;22.50;;;11.82;;
17052;SDS011;8643;48.824;11.422;2023-07-29T03:27:28;18.40;;;11.25;;
17052;SDS011;8643;48.824;11.422;2023-07-29T03:29:56;17.83;;;11.65;;
17052;SDS011;8643;48.824;11.422;2023-07-29T03:32:25;20.13;;;12.20;;
17052;SDS011;8643;48.824;11.422;2023-07-29T03:34:54;20.92;;;11.52;;
17052;SDS011;8643;48.824;11.422;2023-07-29T03:37:24;17.42;;;10.32;;
17052;SDS011;8643;48.824;11.422;2023-07-29T03:39:52;23.50;;;11.73;;
17052;SDS011;8643;48.824;11.422;2023-07-29T03:42:21;19.00;;;11.18;;
17052;SDS011;8643;48.824;11.422;2023-07-29T03:44:50;28.75;;;11.80;;
17052;SDS011;8643;48.824;11.422;2023-07-29T03:47:18;18.92;;;11.27;;
17052;SDS011;8643;48.824;11.422;2023-07-29T03:49:47;17.05;;;10.38;;
17052;SDS011;8643;48.824;11.422;2023-07-29T03:52:19;16.17;;;10.80;;
17052;SDS011;8643;48.824;11.422;2023-07-29T03:54:49;13.50;;;9.10;;
17052;SDS011;8643;48.824;11.422;2023-07-29T03:57:18;15.23;;;9.30;;
17052;SDS011;8643;48.824;11.422;2023-07-29T03:59:47;12.85;;;8.25;;
17052;SDS011;8643;48.824;11.422;2023-07-29T04:02:15;12.00;;;8.70;;
17052;SDS011;8643;48.824;11.422;2023-07-29T04:04:44;14.15;;;8.60;;
17052;SDS011;8643;48.824;11.422;2023-07-29T04:07:14;12.18;;;8.20;;
17052;SDS011;8643;48.824;11.422;2023-07-29T04:09:43;10.73;;;7.80;;
17052;SDS011;8643;48.824;11.422;2023-07-29T04:12:13;12.65;;;7.70;;
17052;SDS011;8643;48.824;11.422;2023-07-29T04:14:42;10.85;;;7.60;;
17052;SDS011;8643;48.824;11.422;2023-07-29T04:17:10;10.85;;;6.68;;
17052;SDS011;8643;48.824;11.422;2023-07-29T04:19:39;10.40;;;6.20;;
17052;SDS011;8643;48.824;11.422;2023-07-29T04:22:07;9.68;;;6.10;;
17052;SDS011;8643;48.824;11.422;2023-07-29T04:24:37;9.00;;;6.20;;
17052;SDS011;8643;48.824;11.422;2023-07-29T04:27:05;8.85;;;6.20;;
17052;SDS011;8643;48.824;11.422;2023-07-29T04:29:36;9.65;;;6.38;;
17052;SDS011;8643;48.824;11.422;2023-07-29T04:32:05;9.48;;;6.45;;
17052;SDS011;8643;48.824;11.422;2023-07-29T04:34:33;9.75;;;6.15;;
17052;SDS011;8643;48.824;11.422;2023-07-29T04:37:02;9.43;;;6.90;;
17052;SDS011;8643;48.824;11.422;2023-07-29T04:39:31;9.15;;;6.43;;
17052;SDS011;8643;48.824;11.422;2023-07-29T04:41:59;10.77;;;6.80;;
17052;SDS011;8643;48.824;11.422;2023-07-29T04:44:28;10.30;;;6.68;;
17052;SDS011;8643;48.824;11.422;2023-07-29T04:46:58;10.23;;;7.35;;
17052;SDS011;8643;48.824;11.422;2023-07-29T04:49:26;11.02;;;6.97;;
17052;SDS011;8643;48.824;11.422;2023-07-29T04:51:56;10.25;;;7.40;;
17052;SDS011;8643;48.824;11.422;2023-07-29T04:54:24;10.18;;;7.25;;
17052;SDS011;8643;48.824;11.422;2023-07-29T04:56:53;12.13;;;7.35;;
17052;SDS011;8643;48.824;11.422;2023-07-29T04:59:21;13.02;;;8.27;;
17052;SDS011;8643;48.824;11.422;2023-07-29T05:01:50;10.07;;;7.32;;
17052;SDS011;8643;48.824;11.422;2023-07-29T05:04:22;14.57;;;9.13;;
17052;SDS011;8643;48.824;11.422;2023-07-29T05:06:52;12.73;;;9.23;;
17052;SDS011;8643;48.824;11.422;2023-07-29T05:09:20;10.25;;;7.88;;
17052;SDS011;8643;48.824;11.422;2023-07-29T05:11:51;16.23;;;8.73;;
17052;SDS011;8643;48.824;11.422;2023-07-29T05:14:19;16.10;;;9.70;;
17052;SDS011;8643;48.824;11.422;2023-07-29T05:16:48;12.00;;;8.60;;
17052;SDS011;8643;48.824;11.422;2023-07-29T05:19:17;12.40;;;8.82;;
17052;SDS011;8643;48.824;11.422;2023-07-29T05:21:47;14.85;;;9.95;;
17052;SDS011;8643;48.824;11.422;2023-07-29T05:24:17;17.05;;;10.43;;
17052;SDS011;8643;48.824;11.422;2023-07-29T05:26:46;18.73;;;10.13;;
17052;SDS011;8643;48.824;11.422;2023-07-29T05:29:14;11.63;;;8.95;;
17052;SDS011;8643;48.824;11.422;2023-07-29T05:31:42;13.50;;;8.95;;
17052;SDS011;8643;48.824;11.422;2023-07-29T05:34:11;12.15;;;8.45;;
17052;SDS011;8643;48.824;11.422;2023-07-29T05:36:40;13.40;;;8.48;;
17052;SDS011;8643;48.824;11.422;2023-07-29T05:39:10;11.10;;;7.70;;
17052;SDS011;8643;48.824;11.422;2023-07-29T05:41:39;10.25;;;7.57;;
17052;SDS011;8643;48.824;11.422;2023-07-29T05:44:08;11.13;;;8.45;;
17052;SDS011;8643;48.824;11.422;2023-07-29T05:46:36;11.55;;;7.00;;
17052;SDS011;8643;48.824;11.422;2023-07-29T05:49:06;15.45;;;8.20;;
17052;SDS011;8643;48.824;11.422;2023-07-29T05:51:35;11.35;;;8.27;;
17052;SDS011;8643;48.824;11.422;2023-07-29T05:54:03;10.52;;;7.47;;
17052;SDS011;8643;48.824;11.422;2023-07-29T05:56:34;11.38;;;7.32;;
17052;SDS011;8643;48.824;11.422;2023-07-29T05:59:03;14.85;;;7.82;;
17052;SDS011;8643;48.824;11.422;2023-07-29T06:01:31;12.00;;;7.43;;
17052;SDS011;8643;48.824;11.422;2023-07-29T06:04:01;10.85;;;7.93;;
17052;SDS011;8643;48.824;11.422;2023-07-29T06:06:30;10.57;;;7.07;;
17052;SDS011;8643;48.824;11.422;2023-07-29T06:08:58;8.57;;;5.93;;
17052;SDS011;8643;48.824;11.422;2023-07-29T06:11:27;9.20;;;6.55;;
17052;SDS011;8643;48.824;11.422;2023-07-29T06:13:57;9.63;;;6.60;;
17052;SDS011;8643;48.824;11.422;2023-07-29T06:16:25;9.68;;;6.60;;
17052;SDS011;8643;48.824;11.422;2023-07-29T06:18:54;11.25;;;6.63;;
17052;SDS011;8643;48.824;11.422;2023-07-29T06:21:23;10.88;;;6.63;;
17052;SDS011;8643;48.824;11.422;2023-07-29T06:23:52;11.65;;;6.57;;
17052;SDS011;8643;48.824;11.422;2023-07-29T06:26:20;12.18;;;7.30;;
17052;SDS011;8643;48.824;11.422;2023-07-29T06:28:48;10.45;;;7.15;;
17052;SDS011;8643;48.824;11.422;2023-07-29T06:31:18;14.18;;;6.53;;
17052;SDS011;8643;48.824;11.422;2023-07-29T06:33:47;10.45;;;6.90;;
17052;SDS011;8643;48.824;11.422;2023-07-29T06:36:15;8.48;;;6.65;;
17052;SDS011;8643;48.824;11.422;2023-07-29T06:38:44;11.02;;;7.13;;
17052;SDS011;8643;48.824;11.422;2023-07-29T06:41:13;12.25;;;7.00;;
17052;SDS011;8643;48.824;11.422;2023-07-29T06:43:44;8.80;;;6.40;;
17052;SDS011;8643;48.824;11.422;2023-07-29T06:46:13;12.18;;;6.93;;
17052;SDS011;8643;48.824;11.422;2023-07-29T06:48:45;10.25;;;7.43;;
17052;SDS011;8643;48.824;11.422;2023-07-29T06:51:13;8.60;;;6.72;;
17052;SDS011;8643;48.824;11.422;2023-07-29T06:53:42;11.55;;;6.22;;
17052;SDS011;8643;48.824;11.422;2023-07-29T06:56:10;10.27;;;6.88;;
17052;SDS011;8643;48.824;11.422;2023-07-29T06:58:39;11.93;;;7.00;;
17052;SDS011;8643;48.824;11.422;2023-07-29T07:01:07;10.25;;;6.55;;
17052;SDS011;8643;48.824;11.422;2023-07-29T07:03:36;8.23;;;6.00;;
17052;SDS011;8643;48.824;11.422;2023-07-29T07:06:06;10.95;;;6.57;;
17052;SDS011;8643;48.824;11.422;2023-07-29T07:08:35;10.55;;;7.07;;
17052;SDS011;8643;48.824;11.422;2023-07-29T07:11:04;11.93;;;7.50;;
17052;SDS011;8643;48.824;11.422;2023-07-29T07:13:32;11.93;;;7.93;;
17052;SDS011;8643;48.824;11.422;2023-07-29T07:16:01;9.93;;;7.07;;
17052;SDS011;8643;48.824;11.422;2023-07-29T07:18:30;10.27;;;7.55;;
17052;SDS011;8643;48.824;11.422;2023-07-29T07:20:59;10.45;;;6.93;;
17052;SDS011;8643;48.824;11.422;2023-07-29T07:23:29;12.40;;;6.65;;
17052;SDS011;8643;48.824;11.422;2023-07-29T07:25:58;13.05;;;7.65;;
17052;SDS011;8643;48.824;11.422;2023-07-29T07:28:26;12.75;;;7.25;;
17052;SDS011;8643;48.824;11.422;2023-07-29T07:30:55;9.70;;;6.90;;
17052;SDS011;8643;48.824;11.422;2023-07-29T07:33:23;16.42;;;7.65;;
17052;SDS011;8643;48.824;11.422;2023-07-29T07:35:52;11.73;;;7.40;;
17052;SDS011;8643;48.824;11.422;2023-07-29T07:38:21;12.30;;;7.25;;
17052;SDS011;8643;48.824;11.422;2023-07-29T07:40:54;11.10;;;8.10;;
17052;SDS011;8643;48.824;11.422;2023-07-29T07:43:23;12.88;;;8.05;;
17052;SDS011;8643;48.824;11.422;2023-07-29T07:45:57;50.67;;;12.55;;
17052;SDS011;8643;48.824;11.422;2023-07-29T07:48:27;29.63;;;12.00;;
17052;SDS011;8643;48.824;11.422;2023-07-29T07:50:55;21.55;;;10.10;;
17052;SDS011;8643;48.824;11.422;2023-07-29T07:53:24;15.50;;;9.68;;
17052;SDS011;8643;48.824;11.422;2023-07-29T07:55:54;19.30;;;10.35;;
17052;SDS011;8643;48.824;11.422;2023-07-29T07:58:23;22.02;;;10.18;;
17052;SDS011;8643;48.824;11.422;2023-07-29T08:00:51;13.85;;;9.25;;
17052;SDS011;8643;48.824;11.422;2023-07-29T08:03:28;15.20;;;9.30;;
17052;SDS011;8643;48.824;11.422;2023-07-29T08:05:56;17.95;;;9.32;;
17052;SDS011;8643;48.824;11.422;2023-07-29T08:08:25;18.77;;;10.75;;
17052;SDS011;8643;48.824;11.422;2023-07-29T08:10:56;25.38;;;11.60;;
17052;SDS011;8643;48.824;11.422;2023-07-29T08:13:25;26.50;;;12.80;;
17052;SDS011;8643;48.824;11.422;2023-07-29T08:15:53;20.00;;;10.68;;
17052;SDS011;8643;48.824;11.422;2023-07-29T08:18:22;23.10;;;13.18;;
17052;SDS011;8643;48.824;11.422;2023-07-29T08:20:51;23.50;;;12.57;;
17052;SDS011;8643;48.824;11.422;2023-07-29T08:23:21;21.48;;;12.05;;
17052;SDS011;8643;48.824;11.422;2023-07-29T08:25:51;19.92;;;12.32;;
17052;SDS011;8643;48.824;11.422;2023-07-29T08:28:23;18.58;;;11.18;;
17052;SDS011;8643;48.824;11.422;2023-07-29T08:30:54;18.83;;;11.68;;
17052;SDS011;8643;48.824;11.422;2023-07-29T08:33:22;17.85;;;10.88;;
17052;SDS011;8643;48.824;11.422;2023-07-29T08:35:51;14.40;;;9.50;;
17052;SDS011;8643;48.824;11.422;2023-07-29T08:38:20;12.93;;;9.25;;
17052;SDS011;8643;48.824;11.422;2023-07-29T08:40:52;12.88;;;7.97;;
17052;SDS011;8643;48.824;11.422;2023-07-29T08:43:33;9.50;;;6.88;;
17052;SDS011;8643;48.824;11.422;2023-07-29T08:46:06;8.38;;;6.10;;
17052;SDS011;8643;48.824;11.422;2023-07-29T08:48:36;7.60;;;6.20;;
17052;SDS011;8643;48.824;11.422;2023-07-29T08:51:08;6.45;;;4.72;;
17052;SDS011;8643;48.824;11.422;2023-07-29T08:53:39;4.47;;;3.88;;
17052;SDS011;8643;48.824;11.422;2023-07-29T08:56:07;6.70;;;3.67;;
17052;SDS011;8643;48.824;11.422;2023-07-29T08:58:38;4.18;;;3.00;;
17052;SDS011;8643;48.824;11.422;2023-07-29T09:01:07;4.55;;;2.70;;
17052;SDS011;8643;48.824;11.422;2023-07-29T09:03:37;3.80;;;2.95;;
17052;SDS011;8643;48.824;11.422;2023-07-29T09:06:06;3.42;;;2.85;;
17052;SDS011;8643;48.824;11.422;2023-07-29T09:08:35;4.03;;;3.15;;
17052;SDS011;8643;48.824;11.422;2023-07-29T09:11:04;3.60;;;2.95;;
17052;SDS011;8643;48.824;11.422;2023-07-29T09:13:34;4.78;;;3.13;;
17052;SDS011;8643;48.824;11.422;2023-07-29T09:16:04;5.88;;;3.50;;
17052;SDS011;8643;48.824;11.422;2023-07-29T09:18:33;5.72;;;2.75;;
17052;SDS011;8643;48.824;11.422;2023-07-29T09:21:02;4.65;;;3.35;;
17052;SDS011;8643;48.824;11.422;2023-07-29T09:23:38;5.30;;;3.05;;
17052;SDS011;8643;48.824;11.422;2023-07-29T09:26:07;7.70;;;3.40;;
17052;SDS011;8643;48.824;11.422;2023-07-29T09:28:39;4.78;;;3.35;;
17052;SDS011;8643;48.824;11.422;2023-07-29T09:31:15;5.05;;;3.30;;
17052;SDS011;8643;48.824;11.422;2023-07-29T09:33:48;4.65;;;3.90;;
17052;SDS011;8643;48.824;11.422;2023-07-29T09:36:22;6.57;;;4.20;;
17052;SDS011;8643;48.824;11.422;2023-07-29T09:38:54;6.13;;;4.20;;
17052;SDS011;8643;48.824;11.422;2023-07-29T09:41:25;6.88;;;4.70;;
17052;SDS011;8643;48.824;11.422;2023-07-29T09:44:00;10.18;;;5.40;;
17052;SDS011;8643;48.824;11.422;2023-07-29T09:46:33;6.22;;;5.28;;
17052;SDS011;8643;48.824;11.422;2023-07-29T09:49:05;8.10;;;5.65;;
17052;SDS011;8643;48.824;11.422;2023-07-29T09:51:36;7.30;;;5.68;;
17052;SDS011;8643;48.824;11.422;2023-07-29T09:54:07;8.77;;;5.80;;
17052;SDS011;8643;48.824;11.422;2023-07-29T09:56:39;10.05;;;6.07;;
17052;SDS011;8643;48.824;11.422;2023-07-29T09:59:09;10.73;;;7.60;;
17052;SDS011;8643;48.824;11.422;2023-07-29T10:01:40;9.70;;;7.00;;
17052;SDS011;8643;48.824;11.422;2023-07-29T10:04:09;6.38;;;5.15;;
17052;SDS011;8643;48.824;11.422;2023-07-29T10:06:41;5.70;;;4.40;;
17052;SDS011;8643;48.824;11.422;2023-07-29T10:09:12;3.65;;;3.05;;
17052;SDS011;8643;48.824;11.422;2023-07-29T10:11:42;3.28;;;2.72;;
17052;SDS011;8643;48.824;11.422;2023-07-29T10:14:11;6.05;;;2.95;;
17052;SDS011;8643;48.824;11.422;2023-07-29T10:16:42;2.92;;;2.22;;
17052;SDS011;8643;48.824;11.422;2023-07-29T10:19:13;4.03;;;2.20;;
17052;SDS011;8643;48.824;11.422;2023-07-29T10:21:44;3.53;;;2.30;;
17052;SDS011;8643;48.824;11.422;2023-07-29T10:24:18;3.15;;;2.60;;
17052;SDS011;8643;48.824;11.422;2023-07-29T10:26:56;3.65;;;2.25;;
17052;SDS011;8643;48.824;11.422;2023-07-29T10:29:28;3.40;;;2.80;;
17052;SDS011;8643;48.824;11.422;2023-07-29T10:32:02;5.15;;;2.60;;
17052;SDS011;8643;48.824;11.422;2023-07-29T10:34:31;3.47;;;1.98;;
17052;SDS011;8643;48.824;11.422;2023-07-29T10:37:02;3.30;;;2.10;;
17052;SDS011;8643;48.824;11.422;2023-07-29T10:39:37;2.90;;;1.90;;
17052;SDS011;8643;48.824;11.422;2023-07-29T10:42:06;3.58;;;1.60;;
17052;SDS011;8643;48.824;11.422;2023-07-29T10:44:47;3.45;;;2.17;;
17052;SDS011;8643;48.824;11.422;2023-07-29T10:47:20;2.42;;;1.90;;
17052;SDS011;8643;48.824;11.422;2023-07-29T10:49:51;2.97;;;2.10;;
17052;SDS011;8643;48.824;11.422;2023-07-29T10:52:30;2.53;;;2.05;;
17052;SDS011;8643;48.824;11.422;2023-07-29T10:55:27;6.00;;;2.15;;
17052;SDS011;8643;48.824;11.422;2023-07-29T10:58:06;3.35;;;1.80;;
17052;SDS011;8643;48.824;11.422;2023-07-29T11:00:45;5.10;;;2.28;;
17052;SDS011;8643;48.824;11.422;2023-07-29T11:03:15;3.50;;;2.22;;
17052;SDS011;8643;48.824;11.422;2023-07-29T11:05:45;3.53;;;2.05;;
17052;SDS011;8643;48.824;11.422;2023-07-29T11:08:20;3.70;;;2.10;;
17052;SDS011;8643;48.824;11.422;2023-07-29T11:10:58;3.65;;;2.25;;
17052;SDS011;8643;48.824;11.422;2023-07-29T11:13:35;2.83;;;2.00;;
17052;SDS011;8643;48.824;11.422;2023-07-29T11:16:05;2.55;;;1.90;;
17052;SDS011;8643;48.824;11.422;2023-07-29T11:18:35;3.35;;;2.10;;
17052;SDS011;8643;48.824;11.422;2023-07-29T11:21:03;3.65;;;2.28;;
17052;SDS011;8643;48.824;11.422;2023-07-29T11:23:34;4.32;;;2.40;;
17052;SDS011;8643;48.824;11.422;2023-07-29T11:26:04;3.03;;;2.20;;
17052;SDS011;8643;48.824;11.422;2023-07-29T11:28:37;4.28;;;2.10;;
17052;SDS011;8643;48.824;11.422;2023-07-29T11:31:07;4.47;;;1.90;;
17052;SDS011;8643;48.824;11.422;2023-07-29T11:33:38;2.40;;;1.92;;
17052;SDS011;8643;48.824;11.422;2023-07-29T11:36:16;3.25;;;2.10;;
17052;SDS011;8643;48.824;11.422;2023-07-29T11:38:46;2.47;;;1.95;;
17052;SDS011;8643;48.824;11.422;2023-07-29T11:41:18;3.00;;;1.70;;
17052;SDS011;8643;48.824;11.422;2023-07-29T11:43:49;4.40;;;2.00;;
17052;SDS011;8643;48.824;11.422;2023-07-29T11:46:20;3.28;;;1.77;;
17052;SDS011;8643;48.824;11.422;2023-07-29T11:48:53;3.10;;;1.70;;
17052;SDS011;8643;48.824;11.422;2023-07-29T11:51:22;3.55;;;1.75;;
17052;SDS011;8643;48.824;11.422;2023-07-29T11:53:52;1.92;;;1.40;;
17052;SDS011;8643;48.824;11.422;2023-07-29T11:56:22;2.25;;;1.65;;
17052;SDS011;8643;48.824;11.422;2023-07-29T11:58:51;4.13;;;1.65;;
17052;SDS011;8643;48.824;11.422;2023-07-29T12:01:21;2.55;;;1.30;;
17052;SDS011;8643;48.824;11.422;2023-07-29T12:03:51;2.17;;;1.70;;
17052;SDS011;8643;48.824;11.422;2023-07-29T12:06:21;2.40;;;1.60;;
17052;SDS011;8643;48.824;11.422;2023-07-29T12:08:51;2.10;;;1.70;;
17052;SDS011;8643;48.824;11.422;2023-07-29T12:11:20;1.90;;;1.55;;
17052;SDS011;8643;48.824;11.422;2023-07-29T12:13:49;2.95;;;1.40;;
17052;SDS011;8643;48.824;11.422;2023-07-29T12:16:17;2.60;;;1.50;;
17052;SDS011;8643;48.824;11.422;2023-07-29T12:18:46;2.22;;;1.40;;
17052;SDS011;8643;48.824;11.422;2023-07-29T12:21:16;3.33;;;1.33;;
17052;SDS011;8643;48.824;11.422;2023-07-29T12:23:46;3.15;;;1.50;;
17052;SDS011;8643;48.824;11.422;2023-07-29T12:26:17;1.75;;;1.40;;
17052;SDS011;8643;48.824;11.422;2023-07-29T12:28:46;2.58;;;1.70;;
17052;SDS011;8643;48.824;11.422;2023-07-29T12:31:15;1.38;;;1.20;;
17052;SDS011;8643;48.824;11.422;2023-07-29T12:33:44;1.98;;;1.55;;
17052;SDS011;8643;48.824;11.422;2023-07-29T12:36:12;1.77;;;1.40;;
17052;SDS011;8643;48.824;11.422;2023-07-29T12:38:43;1.75;;;1.48;;
17052;SDS011;8643;48.824;11.422;2023-07-29T12:41:13;1.77;;;1.50;;
17052;SDS011;8643;48.824;11.422;2023-07-29T12:43:41;1.98;;;1.63;;
17052;SDS011;8643;48.824;11.422;2023-07-29T12:46:10;1.55;;;1.45;;
17052;SDS011;8643;48.824;11.422;2023-07-29T12:48:38;5.10;;;1.60;;
17052;SDS011;8643;48.824;11.422;2023-07-29T12:51:07;2.50;;;1.80;;
17052;SDS011;8643;48.824;11.422;2023-07-29T12:53:35;4.32;;;2.00;;
17052;SDS011;8643;48.824;11.422;2023-07-29T12:56:05;2.70;;;1.92;;
17052;SDS011;8643;48.824;11.422;2023-07-29T12:58:34;4.68;;;2.50;;
17052;SDS011;8643;48.824;11.422;2023-07-29T13:01:03;3.35;;;2.13;;
17052;SDS011;8643;48.824;11.422;2023-07-29T13:03:33;7.35;;;2.65;;
17052;SDS011;8643;48.824;11.422;2023-07-29T13:06:01;3.60;;;2.15;;
17052;SDS011;8643;48.824;11.422;2023-07-29T13:08:30;4.50;;;2.70;;
17052;SDS011;8643;48.824;11.422;2023-07-29T13:10:59;4.57;;;2.50;;
17052;SDS011;8643;48.824;11.422;2023-07-29T13:13:29;4.28;;;2.28;;
17052;SDS011;8643;48.824;11.422;2023-07-29T13:15:57;3.65;;;2.60;;
17052;SDS011;8643;48.824;11.422;2023-07-29T13:18:28;4.18;;;2.70;;
17052;SDS011;8643;48.824;11.422;2023-07-29T13:20:56;4.28;;;2.10;;
17052;SDS011;8643;48.824;11.422;2023-07-29T13:23:26;3.80;;;2.10;;
17052;SDS011;8643;48.824;11.422;2023-07-29T13:25:56;5.22;;;1.80;;
17052;SDS011;8643;48.824;11.422;2023-07-29T13:28:24;3.58;;;1.85;;
17052;SDS011;8643;48.824;11.422;2023-07-29T13:30:54;3.30;;;1.50;;
17052;SDS011;8643;48.824;11.422;2023-07-29T13:33:23;2.17;;;1.60;;
17052;SDS011;8643;48.824;11.422;2023-07-29T13:35:52;1.52;;;1.20;;
17052;SDS011;8643;48.824;11.422;2023-07-29T13:38:20;1.80;;;1.13;;
17052;SDS011;8643;48.824;11.422;2023-07-29T13:40:49;2.20;;;1.25;;
17052;SDS011;8643;48.824;11.422;2023-07-29T13:43:18;2.80;;;1.27;;
17052;SDS011;8643;48.824;11.422;2023-07-29T13:45:47;1.52;;;1.10;;
17052;SDS011;8643;48.824;11.422;2023-07-29T13:48:18;1.48;;;1.10;;
17052;SDS011;8643;48.824;11.422;2023-07-29T13:50:47;1.55;;;1.35;;
17052;SDS011;8643;48.824;11.422;2023-07-29T13:53:15;1.73;;;1.23;;
17052;SDS011;8643;48.824;11.422;2023-07-29T13:55:44;1.70;;;1.10;;
17052;SDS011;8643;48.824;11.422;2023-07-29T13:58:12;1.48;;;1.10;;
17052;SDS011;8643;48.824;11.422;2023-07-29T14:00:41;1.55;;;1.20;;
17052;SDS011;8643;48.824;11.422;2023-07-29T14:03:09;1.90;;;1.08;;
17052;SDS011;8643;48.824;11.422;2023-07-29T14:05:39;2.00;;;1.20;;
17052;SDS011;8643;48.824;11.422;2023-07-29T14:08:08;2.95;;;1.38;;
17052;SDS011;8643;48.824;11.422;2023-07-29T14:10:36;3.95;;;1.30;;
17052;SDS011;8643;48.824;11.422;2023-07-29T14:13:05;1.50;;;1.30;;
17052;SDS011;8643;48.824;11.422;2023-07-29T14:15:33;2.08;;;1.13;;
17052;SDS011;8643;48.824;11.422;2023-07-29T14:18:06;1.30;;;1.10;;
17052;SDS011;8643;48.824;11.422;2023-07-29T14:20:35;2.72;;;1.30;;
17052;SDS011;8643;48.824;11.422;2023-07-29T14:23:05;2.13;;;1.40;;
17052;SDS011;8643;48.824;11.422;2023-07-29T14:25:34;1.55;;;1.20;;
17052;SDS011;8643;48.824;11.422;2023-07-29T14:28:02;1.63;;;1.00;;
17052;SDS011;8643;48.824;11.422;2023-07-29T14:30:31;1.25;;;1.10;;
17052;SDS011;8643;48.824;11.422;2023-07-29T14:33:00;2.05;;;1.13;;
17052;SDS011;8643;48.824;11.422;2023-07-29T14:35:28;2.47;;;1.20;;
17052;SDS011;8643;48.824;11.422;2023-07-29T14:37:57;2.92;;;1.10;;
17052;SDS011;8643;48.824;11.422;2023-07-29T14:40:26;1.67;;;1.20;;
17052;SDS011;8643;48.824;11.422;2023-07-29T14:42:56;1.55;;;0.90;;
17052;SDS011;8643;48.824;11.422;2023-07-29T14:45:25;2.22;;;1.15;;
17052;SDS011;8643;48.824;11.422;2023-07-29T14:47:53;2.70;;;1.10;;
17052;SDS011;8643;48.824;11.422;2023-07-29T14:50:22;3.22;;;1.45;;
17052;SDS011;8643;48.824;11.422;2023-07-29T14:52:50;1.77;;;1.35;;
17052;SDS011;8643;48.824;11.422;2023-07-29T14:55:19;11.88;;;7.60;;
17052;SDS011;8643;48.824;11.422;2023-07-29T14:57:49;1.60;;;1.20;;